createdAt,value
2019-05-13T00:00:04.945Z,5.90
2019-05-13T00:01:07.047Z,5.90
2019-05-13T00:02:04.994Z,5.90
2019-05-13T00:03:04.597Z,5.90
2019-05-13T00:04:09.786Z,5.80
2019-05-13T00:05:05.106Z,5.80
2019-05-13T00:06:04.416Z,5.80
2019-05-13T00:07:04.939Z,5.70
2019-05-13T00:08:04.891Z,5.70
2019-05-13T00:09:04.852Z,5.70
2019-05-13T00:10:04.380Z,5.70
2019-05-13T00:11:04.659Z,5.70
2019-05-13T00:12:04.802Z,5.60
2019-05-13T00:13:04.808Z,5.60
2019-05-13T00:14:04.686Z,5.60
2019-05-13T00:15:04.613Z,5.60
2019-05-13T00:16:05.814Z,5.60
2019-05-13T00:17:04.541Z,5.60
2019-05-13T00:18:04.414Z,5.60
2019-05-13T00:19:05.107Z,5.60
2019-05-13T00:20:05.009Z,5.60
2019-05-13T00:21:04.508Z,5.60
2019-05-13T00:22:06.080Z,5.60
2019-05-13T00:23:04.663Z,5.60
2019-05-13T00:24:05.083Z,5.60
2019-05-13T00:25:04.250Z,5.60
2019-05-13T00:26:04.912Z,5.60
2019-05-13T00:27:05.107Z,5.60
2019-05-13T00:28:04.514Z,5.60
2019-05-13T00:29:05.020Z,5.60
2019-05-13T00:30:04.463Z,5.60
2019-05-13T00:31:04.621Z,5.60
2019-05-13T00:32:04.871Z,5.60
2019-05-13T00:33:04.644Z,5.60
2019-05-13T00:34:05.014Z,5.50
2019-05-13T00:35:05.621Z,5.50
2019-05-13T00:36:04.637Z,5.50
2019-05-13T00:37:10.562Z,5.50
2019-05-13T00:38:04.574Z,5.50
2019-05-13T00:39:04.684Z,5.50
2019-05-13T00:40:04.853Z,5.50
2019-05-13T00:41:05.189Z,5.50
2019-05-13T00:42:04.341Z,5.50
2019-05-13T00:43:05.013Z,5.40
2019-05-13T00:44:09.485Z,5.40
2019-05-13T00:45:04.807Z,5.40
2019-05-13T00:46:04.911Z,5.40
2019-05-13T00:47:04.962Z,5.40
2019-05-13T00:48:05.067Z,5.40
2019-05-13T00:49:05.060Z,5.30
2019-05-13T00:50:04.603Z,5.30
2019-05-13T00:51:05.039Z,5.30
2019-05-13T00:52:04.243Z,5.30
2019-05-13T00:53:04.777Z,5.30
2019-05-13T00:54:04.840Z,5.30
2019-05-13T00:55:05.188Z,5.30
2019-05-13T00:56:04.800Z,5.20
2019-05-13T00:57:04.803Z,5.20
2019-05-13T00:58:04.544Z,5.20
2019-05-13T00:59:04.418Z,5.20
2019-05-13T01:00:04.682Z,5.20
2019-05-13T01:01:04.415Z,5.20
2019-05-13T01:02:04.544Z,5.10
2019-05-13T01:03:04.643Z,5.10
2019-05-13T01:04:09.625Z,5.10
2019-05-13T01:05:04.846Z,5.10
2019-05-13T01:06:04.453Z,5.10
2019-05-13T01:07:07.043Z,5.10
2019-05-13T01:08:04.891Z,5.10
2019-05-13T01:09:04.614Z,5.00
2019-05-13T01:10:04.652Z,5.00
2019-05-13T01:11:04.759Z,5.00
2019-05-13T01:12:04.621Z,5.00
2019-05-13T01:13:04.858Z,5.00
2019-05-13T01:14:04.818Z,4.90
2019-05-13T01:15:04.818Z,4.90
2019-05-13T01:16:04.655Z,4.90
2019-05-13T01:17:05.120Z,4.90
2019-05-13T01:18:04.612Z,4.90
2019-05-13T01:19:04.891Z,4.80
2019-05-13T01:20:05.135Z,4.80
2019-05-13T01:21:04.643Z,4.80
2019-05-13T01:22:04.619Z,4.80
2019-05-13T01:23:04.770Z,4.80
2019-05-13T01:24:04.895Z,4.80
2019-05-13T01:25:05.195Z,4.80
2019-05-13T01:26:04.458Z,4.80
2019-05-13T01:27:04.402Z,4.80
2019-05-13T01:28:04.915Z,4.80
2019-05-13T01:29:04.569Z,4.80
2019-05-13T01:30:04.930Z,4.80
2019-05-13T01:31:04.783Z,4.70
2019-05-13T01:32:04.947Z,4.70
2019-05-13T01:33:05.099Z,4.70
2019-05-13T01:34:04.966Z,4.70
2019-05-13T01:35:04.616Z,4.70
2019-05-13T01:36:05.188Z,4.70
2019-05-13T01:37:04.604Z,4.60
2019-05-13T01:38:05.692Z,4.60
2019-05-13T01:39:04.317Z,4.60
2019-05-13T01:40:05.698Z,4.60
2019-05-13T01:41:05.237Z,4.60
2019-05-13T01:42:04.430Z,4.60
2019-05-13T01:43:04.461Z,4.60
2019-05-13T01:44:04.426Z,4.60
2019-05-13T01:45:09.469Z,4.60
2019-05-13T01:46:04.912Z,4.60
2019-05-13T01:47:04.626Z,4.60
2019-05-13T01:48:06.948Z,4.60
2019-05-13T01:49:05.065Z,4.60
2019-05-13T01:50:04.801Z,4.50
2019-05-13T01:51:04.380Z,4.50
2019-05-13T01:52:04.808Z,4.50
2019-05-13T01:53:04.864Z,4.50
2019-05-13T01:54:04.824Z,4.50
2019-05-13T01:55:05.038Z,4.50
2019-05-13T01:56:04.366Z,4.50
2019-05-13T01:57:04.702Z,4.50
2019-05-13T01:58:04.920Z,4.50
2019-05-13T01:59:04.563Z,4.50
2019-05-13T02:00:04.843Z,4.50
2019-05-13T02:01:04.958Z,4.50
2019-05-13T02:02:05.036Z,4.50
2019-05-13T02:03:04.614Z,4.50
2019-05-13T02:04:04.690Z,4.50
2019-05-13T02:05:04.701Z,4.50
2019-05-13T02:06:04.240Z,4.50
2019-05-13T02:07:04.667Z,4.50
2019-05-13T02:08:04.972Z,4.50
2019-05-13T02:09:04.439Z,4.50
2019-05-13T02:10:04.604Z,4.50
2019-05-13T02:11:05.014Z,4.50
2019-05-13T02:12:04.968Z,4.50
2019-05-13T02:13:04.870Z,4.50
2019-05-13T02:14:05.580Z,4.50
2019-05-13T02:15:04.553Z,4.50
2019-05-13T02:16:04.611Z,4.50
2019-05-13T02:17:05.093Z,4.50
2019-05-13T02:18:04.644Z,4.40
2019-05-13T02:19:09.794Z,4.40
2019-05-13T02:20:05.137Z,4.40
2019-05-13T02:21:05.137Z,4.40
2019-05-13T02:22:04.470Z,4.40
2019-05-13T02:23:04.557Z,4.40
2019-05-13T02:24:04.569Z,4.40
2019-05-13T02:25:04.807Z,4.40
2019-05-13T02:26:04.726Z,4.40
2019-05-13T02:27:06.104Z,4.40
2019-05-13T02:28:08.675Z,4.40
2019-05-13T02:29:05.171Z,4.30
2019-05-13T02:30:05.438Z,4.40
2019-05-13T02:31:04.526Z,4.30
2019-05-13T02:32:04.564Z,4.30
2019-05-13T02:33:05.041Z,4.30
2019-05-13T02:34:04.809Z,4.30
2019-05-13T02:35:04.821Z,4.30
2019-05-13T02:36:04.515Z,4.30
2019-05-13T02:37:04.662Z,4.30
2019-05-13T02:38:19.254Z,4.30
2019-05-13T02:39:05.117Z,4.30
2019-05-13T02:40:04.764Z,4.30
2019-05-13T02:41:04.809Z,4.30
2019-05-13T02:42:04.686Z,4.20
2019-05-13T02:43:04.635Z,4.20
2019-05-13T02:44:12.174Z,4.20
2019-05-13T02:45:04.775Z,4.20
2019-05-13T02:46:04.654Z,4.20
2019-05-13T02:47:04.526Z,4.20
2019-05-13T02:48:05.094Z,4.20
2019-05-13T02:49:05.156Z,4.20
2019-05-13T02:50:05.207Z,4.20
2019-05-13T02:51:04.338Z,4.20
2019-05-13T02:52:04.295Z,4.20
2019-05-13T02:53:04.667Z,4.10
2019-05-13T02:54:04.736Z,4.10
2019-05-13T02:55:04.698Z,4.20
2019-05-13T02:56:05.049Z,4.10
2019-05-13T02:57:04.486Z,4.10
2019-05-13T02:58:04.708Z,4.10
2019-05-13T02:59:04.877Z,4.10
2019-05-13T03:00:04.911Z,4.10
2019-05-13T03:01:04.359Z,4.10
2019-05-13T03:02:04.548Z,4.00
2019-05-13T03:03:04.459Z,4.00
2019-05-13T03:04:13.082Z,4.00
2019-05-13T03:05:04.660Z,4.00
2019-05-13T03:06:05.829Z,4.00
2019-05-13T03:07:04.479Z,4.00
2019-05-13T03:08:05.103Z,4.00
2019-05-13T03:09:05.180Z,4.00
2019-05-13T03:10:05.160Z,3.90
2019-05-13T03:11:04.389Z,3.90
2019-05-13T03:12:04.676Z,3.90
2019-05-13T03:13:05.506Z,3.90
2019-05-13T03:14:04.664Z,3.90
2019-05-13T03:15:05.007Z,3.90
2019-05-13T03:16:05.102Z,3.90
2019-05-13T03:17:05.147Z,3.90
2019-05-13T03:18:04.906Z,3.90
2019-05-13T03:19:04.475Z,3.80
2019-05-13T03:20:04.653Z,3.80
2019-05-13T03:21:05.171Z,3.80
2019-05-13T03:22:04.313Z,3.80
2019-05-13T03:23:06.211Z,3.80
2019-05-13T03:24:04.357Z,3.80
2019-05-13T03:25:04.913Z,3.80
2019-05-13T03:26:04.431Z,3.80
2019-05-13T03:27:04.880Z,3.70
2019-05-13T03:28:06.540Z,3.70
2019-05-13T03:29:05.042Z,3.70
2019-05-13T03:30:05.161Z,3.70
2019-05-13T03:31:06.919Z,3.70
2019-05-13T03:32:07.015Z,3.70
2019-05-13T03:33:10.641Z,3.70
2019-05-13T03:34:06.963Z,3.70
2019-05-13T03:35:06.991Z,3.70
2019-05-13T03:36:06.197Z,3.70
2019-05-13T03:37:06.889Z,3.70
2019-05-13T03:38:04.914Z,3.70
2019-05-13T03:39:09.653Z,3.70
2019-05-13T03:40:05.440Z,3.70
2019-05-13T03:41:04.643Z,3.60
2019-05-13T03:42:04.310Z,3.60
2019-05-13T03:43:04.460Z,3.60
2019-05-13T03:44:14.711Z,3.60
2019-05-13T03:45:04.213Z,3.60
2019-05-13T03:46:04.532Z,3.60
2019-05-13T03:47:05.194Z,3.60
2019-05-13T03:48:04.709Z,3.60
2019-05-13T03:49:04.613Z,3.60
2019-05-13T03:50:04.257Z,3.60
2019-05-13T03:51:04.333Z,3.60
2019-05-13T03:52:05.770Z,3.60
2019-05-13T03:53:05.096Z,3.60
2019-05-13T03:54:05.224Z,3.70
2019-05-13T03:55:05.385Z,3.60
2019-05-13T03:56:04.541Z,3.60
2019-05-13T03:57:04.675Z,3.70
2019-05-13T03:58:04.973Z,3.70
2019-05-13T03:59:05.052Z,3.70
2019-05-13T04:00:04.621Z,3.70
2019-05-13T04:01:04.851Z,3.70
2019-05-13T04:02:05.124Z,3.70
2019-05-13T04:03:05.199Z,3.70
2019-05-13T04:04:04.977Z,3.70
2019-05-13T04:05:04.421Z,3.70
2019-05-13T04:06:04.754Z,3.80
2019-05-13T04:07:04.281Z,3.80
2019-05-13T04:08:04.647Z,3.80
2019-05-13T04:09:20.422Z,3.80
2019-05-13T04:10:04.774Z,3.90
2019-05-13T04:11:04.365Z,4.00
2019-05-13T04:12:04.808Z,4.10
2019-05-13T04:13:04.308Z,4.20
2019-05-13T04:14:04.732Z,4.40
2019-05-13T04:15:04.989Z,4.50
2019-05-13T04:16:04.623Z,4.60
2019-05-13T04:17:05.124Z,4.70
2019-05-13T04:18:04.568Z,4.90
2019-05-13T04:19:04.655Z,5.00
2019-05-13T04:20:04.842Z,5.20
2019-05-13T04:21:04.379Z,5.30
2019-05-13T04:22:05.254Z,5.50
2019-05-13T04:23:04.281Z,5.60
2019-05-13T04:24:04.475Z,5.80
2019-05-13T04:25:04.994Z,5.90
2019-05-13T04:26:04.501Z,6.10
2019-05-13T04:27:04.772Z,6.20
2019-05-13T04:28:04.294Z,6.40
2019-05-13T04:29:04.811Z,6.50
2019-05-13T04:30:05.253Z,6.70
2019-05-13T04:31:04.835Z,6.80
2019-05-13T04:32:05.061Z,7.00
2019-05-13T04:33:05.315Z,7.10
2019-05-13T04:34:04.391Z,7.30
2019-05-13T04:35:04.563Z,7.40
2019-05-13T04:36:05.056Z,7.60
2019-05-13T04:37:04.939Z,7.70
2019-05-13T04:38:08.618Z,7.90
2019-05-13T04:39:04.492Z,8.00
2019-05-13T04:40:04.723Z,8.20
2019-05-13T04:41:04.400Z,8.30
2019-05-13T04:42:04.679Z,8.40
2019-05-13T04:43:04.413Z,8.60
2019-05-13T04:44:12.717Z,8.70
2019-05-13T04:45:04.411Z,8.80
2019-05-13T04:46:04.511Z,9.00
2019-05-13T04:47:04.766Z,9.10
2019-05-13T04:48:05.176Z,9.20
2019-05-13T04:49:04.248Z,9.40
2019-05-13T04:50:04.506Z,9.50
2019-05-13T04:51:04.549Z,9.60
2019-05-13T04:52:04.448Z,9.70
2019-05-13T04:53:05.019Z,9.90
2019-05-13T04:54:04.458Z,10.00
2019-05-13T04:55:05.021Z,10.10
2019-05-13T04:56:04.593Z,10.20
2019-05-13T04:57:04.877Z,10.30
2019-05-13T04:58:04.276Z,10.50
2019-05-13T04:59:04.385Z,10.60
2019-05-13T05:00:04.838Z,10.70
2019-05-13T05:01:08.592Z,10.80
2019-05-13T05:02:05.066Z,10.90
2019-05-13T05:03:05.177Z,11.00
2019-05-13T05:04:11.251Z,11.10
2019-05-13T05:05:04.772Z,11.20
2019-05-13T05:06:04.476Z,11.30
2019-05-13T05:07:04.912Z,11.40
2019-05-13T05:08:05.010Z,11.50
2019-05-13T05:09:05.125Z,11.60
2019-05-13T05:10:18.683Z,11.60
2019-05-13T05:11:04.449Z,11.70
2019-05-13T05:12:04.328Z,11.80
2019-05-13T05:13:04.586Z,11.90
2019-05-13T05:14:04.400Z,12.00
2019-05-13T05:15:05.009Z,12.10
2019-05-13T05:16:04.735Z,12.20
2019-05-13T05:17:04.406Z,12.30
2019-05-13T05:18:04.510Z,12.40
2019-05-13T05:19:04.996Z,12.50
2019-05-13T05:20:05.902Z,12.60
2019-05-13T05:21:05.195Z,12.70
2019-05-13T05:22:04.620Z,12.70
2019-05-13T05:23:05.033Z,12.80
2019-05-13T05:24:04.636Z,12.90
2019-05-13T05:25:05.191Z,13.00
2019-05-13T05:26:04.586Z,13.00
2019-05-13T05:27:04.884Z,13.10
2019-05-13T05:28:04.945Z,13.20
2019-05-13T05:29:04.364Z,13.30
2019-05-13T05:30:04.467Z,13.30
2019-05-13T05:31:04.724Z,13.40
2019-05-13T05:32:04.826Z,13.50
2019-05-13T05:33:04.943Z,13.60
2019-05-13T05:34:06.714Z,13.60
2019-05-13T05:35:04.432Z,13.70
2019-05-13T05:36:04.755Z,13.80
2019-05-13T05:37:04.288Z,13.80
2019-05-13T05:38:04.442Z,13.90
2019-05-13T05:39:04.657Z,13.90
2019-05-13T05:40:05.004Z,14.00
2019-05-13T05:41:05.184Z,14.10
2019-05-13T05:42:04.659Z,14.10
2019-05-13T05:43:05.220Z,14.20
2019-05-13T05:44:04.381Z,14.30
2019-05-13T05:45:04.908Z,14.30
2019-05-13T05:46:04.474Z,14.40
2019-05-13T05:47:04.240Z,14.40
2019-05-13T05:48:04.778Z,14.40
2019-05-13T05:49:05.147Z,14.50
2019-05-13T05:50:04.270Z,14.60
2019-05-13T05:51:04.291Z,14.60
2019-05-13T05:52:04.450Z,14.70
2019-05-13T05:53:04.559Z,14.70
2019-05-13T05:54:04.690Z,14.70
2019-05-13T05:55:04.786Z,14.80
2019-05-13T05:56:04.438Z,14.90
2019-05-13T05:57:04.816Z,14.90
2019-05-13T05:58:04.660Z,14.90
2019-05-13T05:59:04.712Z,15.00
2019-05-13T06:00:04.885Z,15.00
2019-05-13T06:01:11.811Z,15.10
2019-05-13T06:02:04.286Z,15.10
2019-05-13T06:03:04.626Z,15.20
2019-05-13T06:04:04.761Z,15.20
2019-05-13T06:05:05.054Z,15.20
2019-05-13T06:06:04.746Z,15.30
2019-05-13T06:07:05.245Z,15.30
2019-05-13T06:08:05.560Z,15.40
2019-05-13T06:09:05.248Z,15.40
2019-05-13T06:10:04.389Z,15.40
2019-05-13T06:11:04.820Z,15.50
2019-05-13T06:12:05.098Z,15.50
2019-05-13T06:13:05.216Z,15.50
2019-05-13T06:14:04.719Z,15.50
2019-05-13T06:15:05.100Z,15.50
2019-05-13T06:16:04.538Z,15.50
2019-05-13T06:17:04.757Z,15.50
2019-05-13T06:18:05.005Z,15.40
2019-05-13T06:19:04.328Z,15.40
2019-05-13T06:20:04.984Z,15.40
2019-05-13T06:21:05.153Z,15.30
2019-05-13T06:22:04.427Z,15.40
2019-05-13T06:23:04.456Z,15.40
2019-05-13T06:24:05.103Z,15.40
2019-05-13T06:25:04.261Z,15.40
2019-05-13T06:26:04.273Z,15.40
2019-05-13T06:27:04.415Z,15.50
2019-05-13T06:28:05.229Z,15.50
2019-05-13T06:29:04.653Z,15.50
2019-05-13T06:30:04.760Z,15.50
2019-05-13T06:31:04.829Z,15.50
2019-05-13T06:32:17.352Z,15.60
2019-05-13T06:33:04.986Z,15.60
2019-05-13T06:34:05.224Z,15.60
2019-05-13T06:35:05.163Z,15.60
2019-05-13T06:36:04.815Z,15.60
2019-05-13T06:37:05.201Z,15.60
2019-05-13T06:38:04.852Z,15.60
2019-05-13T06:39:04.997Z,15.60
2019-05-13T06:40:05.021Z,15.60
2019-05-13T06:41:09.125Z,15.60
2019-05-13T06:42:04.277Z,15.60
2019-05-13T06:43:04.487Z,15.50
2019-05-13T06:44:12.120Z,15.50
2019-05-13T06:45:04.745Z,15.50
2019-05-13T06:46:04.813Z,15.50
2019-05-13T06:47:04.813Z,15.40
2019-05-13T06:48:04.697Z,15.40
2019-05-13T06:49:04.774Z,15.40
2019-05-13T06:50:04.962Z,15.40
2019-05-13T06:51:04.959Z,15.30
2019-05-13T06:52:04.323Z,15.30
2019-05-13T06:53:08.190Z,15.30
2019-05-13T06:54:05.129Z,15.30
2019-05-13T06:55:04.664Z,15.30
2019-05-13T06:56:04.416Z,15.30
2019-05-13T06:57:05.932Z,15.20
2019-05-13T06:58:04.979Z,15.20
2019-05-13T06:59:05.254Z,15.20
2019-05-13T07:00:04.723Z,15.20
2019-05-13T07:01:05.016Z,15.20
2019-05-13T07:02:04.507Z,15.20
2019-05-13T07:03:05.221Z,15.20
2019-05-13T07:04:04.270Z,15.20
2019-05-13T07:05:04.862Z,15.20
2019-05-13T07:06:04.525Z,15.20
2019-05-13T07:07:12.189Z,15.10
2019-05-13T07:08:04.743Z,15.00
2019-05-13T07:09:04.590Z,15.00
2019-05-13T07:10:04.253Z,14.90
2019-05-13T07:11:17.489Z,14.80
2019-05-13T07:12:04.402Z,14.80
2019-05-13T07:13:04.552Z,14.80
2019-05-13T07:14:05.140Z,14.80
2019-05-13T07:15:04.431Z,14.80
2019-05-13T07:16:04.408Z,14.80
2019-05-13T07:17:04.636Z,14.80
2019-05-13T07:18:04.684Z,14.90
2019-05-13T07:19:04.717Z,14.90
2019-05-13T07:20:05.279Z,15.00
2019-05-13T07:21:04.453Z,15.00
2019-05-13T07:22:04.425Z,15.00
2019-05-13T07:23:04.262Z,15.10
2019-05-13T07:24:04.641Z,15.10
2019-05-13T07:25:05.029Z,15.10
2019-05-13T07:26:05.114Z,15.20
2019-05-13T07:27:04.578Z,15.20
2019-05-13T07:28:05.240Z,15.20
2019-05-13T07:29:05.071Z,15.10
2019-05-13T07:30:04.215Z,15.10
2019-05-13T07:31:04.539Z,15.00
2019-05-13T07:32:05.132Z,15.00
2019-05-13T07:33:04.477Z,14.90
2019-05-13T07:34:04.665Z,14.90
2019-05-13T07:35:05.303Z,14.80
2019-05-13T07:36:04.615Z,14.80
2019-05-13T07:37:04.423Z,14.80
2019-05-13T07:38:04.496Z,14.80
2019-05-13T07:39:04.571Z,14.80
2019-05-13T07:40:04.918Z,14.80
2019-05-13T07:41:04.961Z,14.80
2019-05-13T07:42:05.765Z,14.80
2019-05-13T07:43:04.725Z,14.80
2019-05-13T07:44:11.811Z,14.90
2019-05-13T07:45:04.453Z,14.90
2019-05-13T07:46:04.482Z,14.90
2019-05-13T07:47:05.154Z,14.90
2019-05-13T07:48:18.321Z,14.90
2019-05-13T07:49:05.081Z,14.90
2019-05-13T07:50:04.636Z,14.90
2019-05-13T07:51:05.209Z,14.90
2019-05-13T07:52:04.345Z,14.90
2019-05-13T07:53:04.398Z,15.00
2019-05-13T07:54:04.729Z,15.00
2019-05-13T07:55:04.793Z,15.10
2019-05-13T07:56:05.136Z,15.10
2019-05-13T07:57:05.263Z,15.10
2019-05-13T07:58:04.390Z,15.10
2019-05-13T07:59:05.695Z,15.20
2019-05-13T08:00:04.195Z,15.20
2019-05-13T08:01:04.297Z,15.30
2019-05-13T08:02:04.984Z,15.40
2019-05-13T08:03:05.180Z,15.40
2019-05-13T08:04:04.281Z,15.50
2019-05-13T08:05:04.824Z,15.50
2019-05-13T08:06:04.941Z,15.50
2019-05-13T08:07:04.964Z,15.60
2019-05-13T08:08:04.526Z,15.60
2019-05-13T08:09:04.705Z,15.60
2019-05-13T08:10:04.855Z,15.60
2019-05-13T08:11:04.318Z,15.60
2019-05-13T08:12:09.774Z,15.70
2019-05-13T08:13:04.837Z,15.70
2019-05-13T08:14:05.153Z,15.70
2019-05-13T08:15:04.202Z,15.60
2019-05-13T08:16:04.389Z,15.60
2019-05-13T08:17:04.440Z,15.60
2019-05-13T08:18:04.342Z,15.70
2019-05-13T08:19:04.653Z,15.70
2019-05-13T08:20:05.063Z,15.70
2019-05-13T08:21:04.707Z,15.70
2019-05-13T08:22:04.737Z,15.70
2019-05-13T08:23:05.147Z,15.60
2019-05-13T08:24:04.243Z,15.60
2019-05-13T08:25:04.561Z,15.60
2019-05-13T08:26:05.036Z,15.60
2019-05-13T08:27:04.606Z,15.50
2019-05-13T08:28:04.544Z,15.50
2019-05-13T08:29:06.059Z,15.50
2019-05-13T08:30:04.987Z,15.50
2019-05-13T08:31:04.270Z,15.50
2019-05-13T08:32:04.375Z,15.50
2019-05-13T08:33:04.486Z,15.50
2019-05-13T08:34:04.972Z,15.40
2019-05-13T08:35:08.808Z,15.40
2019-05-13T08:36:04.781Z,15.30
2019-05-13T08:37:04.861Z,15.30
2019-05-13T08:38:04.309Z,15.30
2019-05-13T08:39:04.764Z,15.20
2019-05-13T08:40:05.122Z,15.20
2019-05-13T08:41:04.455Z,15.20
2019-05-13T08:42:14.936Z,15.30
2019-05-13T08:43:06.693Z,15.30
2019-05-13T08:44:12.055Z,15.30
2019-05-13T08:45:04.848Z,15.40
2019-05-13T08:46:04.787Z,15.40
2019-05-13T08:47:05.310Z,15.40
2019-05-13T08:48:04.768Z,15.50
2019-05-13T08:49:05.239Z,15.40
2019-05-13T08:50:04.722Z,15.30
2019-05-13T08:51:04.604Z,15.20
2019-05-13T08:52:04.873Z,15.20
2019-05-13T08:53:05.184Z,15.10
2019-05-13T08:54:04.586Z,15.00
2019-05-13T08:55:04.213Z,15.00
2019-05-13T08:56:04.860Z,14.90
2019-05-13T08:57:04.340Z,14.90
2019-05-13T08:58:05.075Z,14.90
2019-05-13T08:59:05.112Z,14.90
2019-05-13T09:00:05.726Z,14.90
2019-05-13T09:01:04.554Z,14.90
2019-05-13T09:02:04.188Z,15.00
2019-05-13T09:03:06.265Z,15.00
2019-05-13T09:04:11.806Z,15.00
2019-05-13T09:05:04.554Z,15.00
2019-05-13T09:06:04.604Z,15.00
2019-05-13T09:07:04.738Z,15.00
2019-05-13T09:08:04.696Z,14.90
2019-05-13T09:09:04.782Z,14.90
2019-05-13T09:10:05.025Z,15.00
2019-05-13T09:11:04.720Z,15.00
2019-05-13T09:12:04.767Z,15.00
2019-05-13T09:13:04.430Z,15.10
2019-05-13T09:14:04.722Z,15.10
2019-05-13T09:15:04.925Z,15.10
2019-05-13T09:16:04.576Z,15.10
2019-05-13T09:17:04.671Z,15.00
2019-05-13T09:18:04.350Z,14.90
2019-05-13T09:19:04.555Z,14.90
2019-05-13T09:20:04.969Z,14.90
2019-05-13T09:21:04.521Z,14.90
2019-05-13T09:22:05.052Z,14.90
2019-05-13T09:23:04.378Z,14.90
2019-05-13T09:24:19.271Z,14.90
2019-05-13T09:25:04.529Z,14.90
2019-05-13T09:26:04.535Z,15.00
2019-05-13T09:27:04.700Z,15.00
2019-05-13T09:28:04.686Z,15.00
2019-05-13T09:29:04.241Z,15.00
2019-05-13T09:30:04.830Z,15.00
2019-05-13T09:31:04.906Z,15.00
2019-05-13T09:32:05.163Z,15.00
2019-05-13T09:33:05.194Z,15.00
2019-05-13T09:34:04.299Z,15.00
2019-05-13T09:35:04.369Z,15.00
2019-05-13T09:36:04.534Z,15.00
2019-05-13T09:37:04.226Z,15.00
2019-05-13T09:38:04.353Z,15.00
2019-05-13T09:39:05.058Z,15.00
2019-05-13T09:40:05.057Z,15.00
2019-05-13T09:41:05.192Z,15.00
2019-05-13T09:42:04.173Z,15.00
2019-05-13T09:43:04.585Z,15.10
2019-05-13T09:44:04.766Z,15.10
2019-05-13T09:45:04.980Z,15.20
2019-05-13T09:46:04.555Z,15.20
2019-05-13T09:47:04.779Z,15.10
2019-05-13T09:48:05.246Z,15.20
2019-05-13T09:49:15.605Z,15.20
2019-05-13T09:50:04.669Z,15.20
2019-05-13T09:51:04.775Z,15.20
2019-05-13T09:52:05.141Z,15.20
2019-05-13T09:53:04.394Z,15.20
2019-05-13T09:54:04.500Z,15.20
2019-05-13T09:55:21.104Z,15.20
2019-05-13T09:56:04.266Z,15.10
2019-05-13T09:57:04.737Z,15.10
2019-05-13T09:58:04.910Z,15.10
2019-05-13T09:59:04.645Z,15.10
2019-05-13T10:00:12.089Z,15.00
2019-05-13T10:01:04.792Z,15.00
2019-05-13T10:02:05.128Z,15.00
2019-05-13T10:03:04.992Z,15.00
2019-05-13T10:04:05.326Z,15.00
2019-05-13T10:05:04.959Z,15.00
2019-05-13T10:06:05.140Z,15.00
2019-05-13T10:07:04.702Z,15.00
2019-05-13T10:08:05.127Z,15.00
2019-05-13T10:09:04.469Z,14.90
2019-05-13T10:10:04.400Z,14.90
2019-05-13T10:11:04.734Z,14.80
2019-05-13T10:12:05.207Z,14.80
2019-05-13T10:13:11.448Z,14.80
2019-05-13T10:14:04.983Z,14.80
2019-05-13T10:15:04.211Z,14.80
2019-05-13T10:16:04.296Z,14.80
2019-05-13T10:17:06.249Z,14.90
2019-05-13T10:18:04.300Z,14.90
2019-05-13T10:19:04.349Z,14.90
2019-05-13T10:20:04.515Z,14.90
2019-05-13T10:21:04.869Z,14.90
2019-05-13T10:22:05.335Z,15.00
2019-05-13T10:23:04.622Z,15.00
2019-05-13T10:24:04.417Z,15.00
2019-05-13T10:25:04.220Z,15.10
2019-05-13T10:26:04.415Z,15.00
2019-05-13T10:27:04.728Z,15.00
2019-05-13T10:28:04.844Z,14.90
2019-05-13T10:29:04.680Z,14.80
2019-05-13T10:30:05.182Z,14.70
2019-05-13T10:31:04.788Z,14.70
2019-05-13T10:32:04.541Z,14.70
2019-05-13T10:33:05.070Z,14.70
2019-05-13T10:34:04.221Z,14.60
2019-05-13T10:35:04.185Z,14.60
2019-05-13T10:36:04.462Z,14.70
2019-05-13T10:37:04.428Z,14.70
2019-05-13T10:38:04.766Z,14.70
2019-05-13T10:39:04.904Z,14.70
2019-05-13T10:40:04.606Z,14.60
2019-05-13T10:41:04.420Z,14.60
2019-05-13T10:42:04.613Z,14.60
2019-05-13T10:43:05.181Z,14.60
2019-05-13T10:44:05.011Z,14.60
2019-05-13T10:45:04.699Z,14.60
2019-05-13T10:46:05.182Z,14.60
2019-05-13T10:47:04.667Z,14.60
2019-05-13T10:48:10.032Z,14.70
2019-05-13T10:49:05.454Z,14.70
2019-05-13T10:50:04.828Z,14.70
2019-05-13T10:51:04.979Z,14.70
2019-05-13T10:52:04.419Z,14.70
2019-05-13T10:53:04.450Z,14.80
2019-05-13T10:54:04.959Z,14.80
2019-05-13T10:55:04.177Z,14.80
2019-05-13T10:56:05.101Z,14.80
2019-05-13T10:57:04.879Z,14.80
2019-05-13T10:58:05.049Z,14.90
2019-05-13T10:59:05.075Z,14.90
2019-05-13T11:00:04.379Z,14.90
2019-05-13T11:01:04.901Z,15.00
2019-05-13T11:02:05.054Z,15.00
2019-05-13T11:03:04.422Z,15.00
2019-05-13T11:04:13.291Z,15.00
2019-05-13T11:05:05.210Z,15.00
2019-05-13T11:06:04.533Z,15.00
2019-05-13T11:07:04.964Z,15.00
2019-05-13T11:08:04.359Z,14.90
2019-05-13T11:09:04.460Z,14.80
2019-05-13T11:10:04.440Z,14.80
2019-05-13T11:11:04.964Z,14.70
2019-05-13T11:12:04.254Z,14.70
2019-05-13T11:13:05.999Z,14.70
2019-05-13T11:14:10.797Z,14.70
2019-05-13T11:15:05.009Z,14.80
2019-05-13T11:16:05.161Z,14.80
2019-05-13T11:17:04.763Z,14.80
2019-05-13T11:18:04.974Z,14.90
2019-05-13T11:19:04.445Z,15.00
2019-05-13T11:20:05.982Z,15.00
2019-05-13T11:21:04.879Z,15.10
2019-05-13T11:22:04.771Z,15.10
2019-05-13T11:23:04.471Z,15.00
2019-05-13T11:24:04.573Z,15.00
2019-05-13T11:25:04.710Z,14.90
2019-05-13T11:26:04.826Z,14.80
2019-05-13T11:27:04.955Z,14.80
2019-05-13T11:28:04.705Z,14.60
2019-05-13T11:29:04.935Z,14.50
2019-05-13T11:30:06.010Z,14.50
2019-05-13T11:31:04.572Z,14.40
2019-05-13T11:32:04.978Z,14.50
2019-05-13T11:33:09.726Z,14.40
2019-05-13T11:34:04.933Z,14.50
2019-05-13T11:35:04.477Z,14.50
2019-05-13T11:36:04.685Z,14.50
2019-05-13T11:37:04.482Z,14.50
2019-05-13T11:38:04.548Z,14.50
2019-05-13T11:39:04.485Z,14.50
2019-05-13T11:40:04.857Z,14.50
2019-05-13T11:41:05.101Z,14.40
2019-05-13T11:42:04.305Z,14.50
2019-05-13T11:43:04.699Z,14.50
2019-05-13T11:44:13.963Z,14.50
2019-05-13T11:45:04.428Z,14.50
2019-05-13T11:46:04.838Z,14.50
2019-05-13T11:47:04.995Z,14.50
2019-05-13T11:48:04.574Z,14.50
2019-05-13T11:49:04.310Z,14.50
2019-05-13T11:50:04.717Z,14.60
2019-05-13T11:51:04.549Z,14.60
2019-05-13T11:52:04.620Z,14.70
2019-05-13T11:53:26.610Z,14.60
2019-05-13T11:54:04.982Z,14.60
2019-05-13T11:55:04.492Z,14.60
2019-05-13T11:56:04.738Z,14.60
2019-05-13T11:57:06.274Z,14.50
2019-05-13T11:58:04.367Z,14.50
2019-05-13T11:59:04.606Z,14.40
2019-05-13T12:00:04.921Z,14.40
2019-05-13T12:01:04.373Z,14.30
2019-05-13T12:02:05.235Z,14.20
2019-05-13T12:03:04.379Z,14.10
2019-05-13T12:04:10.132Z,14.00
2019-05-13T12:05:04.538Z,13.90
2019-05-13T12:06:04.839Z,13.90
2019-05-13T12:07:04.456Z,13.80
2019-05-13T12:08:04.639Z,13.80
2019-05-13T12:09:04.676Z,13.80
2019-05-13T12:10:04.366Z,13.70
2019-05-13T12:11:04.975Z,13.70
2019-05-13T12:12:04.584Z,13.70
2019-05-13T12:13:04.847Z,13.80
2019-05-13T12:14:04.977Z,13.80
2019-05-13T12:15:25.754Z,13.80
2019-05-13T12:16:05.073Z,13.80
2019-05-13T12:17:04.862Z,13.90
2019-05-13T12:18:05.102Z,13.90
2019-05-13T12:19:04.753Z,14.00
2019-05-13T12:20:04.884Z,14.00
2019-05-13T12:21:04.496Z,14.00
2019-05-13T12:22:04.967Z,14.10
2019-05-13T12:23:04.553Z,14.10
2019-05-13T12:24:10.286Z,14.10
2019-05-13T12:25:04.930Z,14.10
2019-05-13T12:26:04.953Z,14.10
2019-05-13T12:27:05.129Z,14.10
2019-05-13T12:28:04.270Z,14.00
2019-05-13T12:29:04.735Z,14.00
2019-05-13T12:30:04.835Z,14.10
2019-05-13T12:31:04.504Z,14.10
2019-05-13T12:32:04.625Z,14.10
2019-05-13T12:33:04.239Z,14.10
2019-05-13T12:34:04.817Z,14.20
2019-05-13T12:35:04.663Z,14.20
2019-05-13T12:36:04.790Z,14.10
2019-05-13T12:37:04.699Z,14.10
2019-05-13T12:38:04.792Z,14.10
2019-05-13T12:39:04.877Z,14.10
2019-05-13T12:40:04.937Z,14.10
2019-05-13T12:41:05.386Z,14.00
2019-05-13T12:42:04.426Z,14.00
2019-05-13T12:43:05.196Z,14.00
2019-05-13T12:44:04.721Z,14.10
2019-05-13T12:45:09.615Z,14.10
2019-05-13T12:46:04.724Z,14.10
2019-05-13T12:47:04.336Z,14.20
2019-05-13T12:48:04.992Z,14.20
2019-05-13T12:49:05.144Z,14.20
2019-05-13T12:50:04.336Z,14.30
2019-05-13T12:51:04.713Z,14.30
2019-05-13T12:52:04.938Z,14.40
2019-05-13T12:53:04.940Z,14.50
2019-05-13T12:54:04.692Z,14.50
2019-05-13T12:55:04.744Z,14.50
2019-05-13T12:56:04.341Z,14.50
2019-05-13T12:57:11.759Z,14.40
2019-05-13T12:58:04.400Z,14.40
2019-05-13T12:59:04.245Z,14.40
2019-05-13T13:00:05.168Z,14.40
2019-05-13T13:01:04.869Z,14.40
2019-05-13T13:02:05.127Z,14.50